sensor_id;sensor_type;location;lat;lon;timestamp;pressure;altitude;pressure_sealevel;temperature;humidity
62948;BME280;51940;52.126;-0.994;2023-01-25T00:01:15;102695.90;;;-0.87;100.00
62948;BME280;51940;52.126;-0.994;2023-01-25T00:03:40;102688.50;;;-0.85;100.00
62948;BME280;51940;52.126;-0.994;2023-01-25T00:06:06;102689.09;;;-0.84;100.00
62948;BME280;51940;52.126;-0.994;2023-01-25T00:08:31;102682.13;;;-0.84;100.00
62948;BME280;51940;52.126;-0.994;2023-01-25T00:10:56;102682.61;;;-0.81;100.00
62948;BME280;51940;52.126;-0.994;2023-01-25T00:13:22;102682.28;;;-0.77;100.00
62948;BME280;51940;52.126;-0.994;2023-01-25T00:15:47;102681.27;;;-0.74;100.00
62948;BME280;51940;52.126;-0.994;2023-01-25T00:18:13;102675.98;;;-0.72;100.00
62948;BME280;51940;52.126;-0.994;2023-01-25T00:20:38;102676.54;;;-0.68;100.00
62948;BME280;51940;52.126;-0.994;2023-01-25T00:23:03;102672.48;;;-0.66;100.00
62948;BME280;51940;52.126;-0.994;2023-01-25T00:25:29;102670.10;;;-0.65;100.00
62948;BME280;51940;52.126;-0.994;2023-01-25T00:27:54;102671.80;;;-0.62;100.00
62948;BME280;51940;52.126;-0.994;2023-01-25T00:30:19;102668.74;;;-0.61;100.00
62948;BME280;51940;52.126;-0.994;2023-01-25T00:32:53;102666.77;;;-0.59;100.00
62948;BME280;51940;52.126;-0.994;2023-01-25T00:35:22;102667.59;;;-0.56;100.00
62948;BME280;51940;52.126;-0.994;2023-01-25T00:37:51;102664.50;;;-0.55;100.00
62948;BME280;51940;52.126;-0.994;2023-01-25T00:40:17;102661.55;;;-0.54;100.00
62948;BME280;51940;52.126;-0.994;2023-01-25T00:42:43;102657.40;;;-0.53;100.00
62948;BME280;51940;52.126;-0.994;2023-01-25T00:45:10;102655.98;;;-0.54;100.00
62948;BME280;51940;52.126;-0.994;2023-01-25T00:47:37;102660.69;;;-0.54;100.00
62948;BME280;51940;52.126;-0.994;2023-01-25T00:50:03;102662.00;;;-0.52;100.00
62948;BME280;51940;52.126;-0.994;2023-01-25T00:52:29;102661.89;;;-0.49;100.00
62948;BME280;51940;52.126;-0.994;2023-01-25T00:54:54;102661.04;;;-0.45;100.00
62948;BME280;51940;52.126;-0.994;2023-01-25T00:57:21;102658.70;;;-0.43;100.00
62948;BME280;51940;52.126;-0.994;2023-01-25T00:59:46;102659.91;;;-0.43;100.00
62948;BME280;51940;52.126;-0.994;2023-01-25T01:02:12;102655.55;;;-0.43;100.00
62948;BME280;51940;52.126;-0.994;2023-01-25T01:04:38;102657.03;;;-0.42;100.00
62948;BME280;51940;52.126;-0.994;2023-01-25T01:07:03;102655.17;;;-0.41;100.00
62948;BME280;51940;52.126;-0.994;2023-01-25T01:09:28;102660.57;;;-0.38;100.00
62948;BME280;51940;52.126;-0.994;2023-01-25T01:11:54;102658.33;;;-0.37;100.00
62948;BME280;51940;52.126;-0.994;2023-01-25T01:14:21;102659.94;;;-0.37;100.00
62948;BME280;51940;52.126;-0.994;2023-01-25T01:16:47;102660.86;;;-0.36;100.00
62948;BME280;51940;52.126;-0.994;2023-01-25T01:19:12;102658.48;;;-0.35;100.00
62948;BME280;51940;52.126;-0.994;2023-01-25T01:21:38;102656.80;;;-0.34;100.00
62948;BME280;51940;52.126;-0.994;2023-01-25T01:24:04;102657.39;;;-0.33;100.00
62948;BME280;51940;52.126;-0.994;2023-01-25T01:26:29;102653.77;;;-0.32;100.00
62948;BME280;51940;52.126;-0.994;2023-01-25T01:28:54;102654.39;;;-0.30;100.00
62948;BME280;51940;52.126;-0.994;2023-01-25T01:31:22;102654.06;;;-0.29;100.00
62948;BME280;51940;52.126;-0.994;2023-01-25T01:33:53;102651.83;;;-0.28;100.00
62948;BME280;51940;52.126;-0.994;2023-01-25T01:36:21;102655.09;;;-0.26;100.00
62948;BME280;51940;52.126;-0.994;2023-01-25T01:38:47;102655.77;;;-0.24;100.00
62948;BME280;51940;52.126;-0.994;2023-01-25T01:41:13;102657.98;;;-0.22;100.00
62948;BME280;51940;52.126;-0.994;2023-01-25T01:43:39;102657.94;;;-0.19;100.00
62948;BME280;51940;52.126;-0.994;2023-01-25T01:46:30;102660.71;;;-0.17;100.00
62948;BME280;51940;52.126;-0.994;2023-01-25T01:49:12;102655.70;;;-0.16;100.00
62948;BME280;51940;52.126;-0.994;2023-01-25T01:59:45;102655.30;;;-0.13;100.00
62948;BME280;51940;52.126;-0.994;2023-01-25T02:02:13;102652.52;;;-0.13;100.00
62948;BME280;51940;52.126;-0.994;2023-01-25T02:04:39;102653.21;;;-0.13;100.00
62948;BME280;51940;52.126;-0.994;2023-01-25T02:07:15;102651.47;;;-0.13;100.00
62948;BME280;51940;52.126;-0.994;2023-01-25T02:09:43;102649.93;;;-0.12;100.00
62948;BME280;51940;52.126;-0.994;2023-01-25T02:12:09;102647.89;;;-0.11;100.00
62948;BME280;51940;52.126;-0.994;2023-01-25T02:14:36;102647.02;;;-0.11;100.00
62948;BME280;51940;52.126;-0.994;2023-01-25T02:17:04;102642.30;;;-0.11;100.00
62948;BME280;51940;52.126;-0.994;2023-01-25T02:19:41;102648.28;;;-0.10;100.00
62948;BME280;51940;52.126;-0.994;2023-01-25T02:22:11;102649.33;;;-0.10;100.00
62948;BME280;51940;52.126;-0.994;2023-01-25T02:24:49;102649.15;;;-0.11;100.00
62948;BME280;51940;52.126;-0.994;2023-01-25T02:27:17;102646.54;;;-0.10;100.00
62948;BME280;51940;52.126;-0.994;2023-01-25T02:29:44;102643.20;;;-0.10;100.00
62948;BME280;51940;52.126;-0.994;2023-01-25T02:32:09;102636.39;;;-0.10;100.00
62948;BME280;51940;52.126;-0.994;2023-01-25T02:34:35;102634.05;;;-0.11;100.00
62948;BME280;51940;52.126;-0.994;2023-01-25T02:37:00;102624.58;;;-0.11;100.00
62948;BME280;51940;52.126;-0.994;2023-01-25T02:39:26;102623.83;;;-0.12;100.00
62948;BME280;51940;52.126;-0.994;2023-01-25T02:41:52;102626.30;;;-0.11;100.00
62948;BME280;51940;52.126;-0.994;2023-01-25T02:44:24;102619.30;;;-0.11;100.00
62948;BME280;51940;52.126;-0.994;2023-01-25T02:46:51;102617.95;;;-0.10;100.00
62948;BME280;51940;52.126;-0.994;2023-01-25T02:49:17;102616.04;;;-0.10;100.00
62948;BME280;51940;52.126;-0.994;2023-01-25T02:51:48;102620.23;;;-0.10;100.00
62948;BME280;51940;52.126;-0.994;2023-01-25T02:54:16;102616.34;;;-0.10;100.00
62948;BME280;51940;52.126;-0.994;2023-01-25T02:56:42;102615.04;;;-0.12;100.00
62948;BME280;51940;52.126;-0.994;2023-01-25T02:59:09;102611.98;;;-0.14;100.00
62948;BME280;51940;52.126;-0.994;2023-01-25T03:01:39;102610.28;;;-0.16;100.00
62948;BME280;51940;52.126;-0.994;2023-01-25T03:04:05;102609.34;;;-0.17;100.00
62948;BME280;51940;52.126;-0.994;2023-01-25T03:06:32;102608.90;;;-0.18;100.00
62948;BME280;51940;52.126;-0.994;2023-01-25T03:08:58;102606.40;;;-0.19;100.00
62948;BME280;51940;52.126;-0.994;2023-01-25T03:11:23;102607.21;;;-0.20;100.00
62948;BME280;51940;52.126;-0.994;2023-01-25T03:13:49;102609.77;;;-0.22;100.00
62948;BME280;51940;52.126;-0.994;2023-01-25T03:16:15;102609.88;;;-0.23;100.00
62948;BME280;51940;52.126;-0.994;2023-01-25T03:18:41;102607.16;;;-0.25;100.00
62948;BME280;51940;52.126;-0.994;2023-01-25T03:21:12;102608.94;;;-0.27;100.00
62948;BME280;51940;52.126;-0.994;2023-01-25T03:23:38;102606.10;;;-0.28;100.00
62948;BME280;51940;52.126;-0.994;2023-01-25T03:26:05;102605.33;;;-0.29;100.00
62948;BME280;51940;52.126;-0.994;2023-01-25T03:28:31;102609.00;;;-0.29;100.00
62948;BME280;51940;52.126;-0.994;2023-01-25T03:30:56;102613.04;;;-0.29;100.00
62948;BME280;51940;52.126;-0.994;2023-01-25T03:33:22;102613.56;;;-0.29;100.00
62948;BME280;51940;52.126;-0.994;2023-01-25T03:35:51;102609.55;;;-0.29;100.00
62948;BME280;51940;52.126;-0.994;2023-01-25T03:38:17;102606.52;;;-0.30;100.00
62948;BME280;51940;52.126;-0.994;2023-01-25T03:40:44;102599.63;;;-0.31;100.00
62948;BME280;51940;52.126;-0.994;2023-01-25T03:43:10;102595.89;;;-0.32;100.00
62948;BME280;51940;52.126;-0.994;2023-01-25T03:45:35;102596.70;;;-0.33;100.00
62948;BME280;51940;52.126;-0.994;2023-01-25T03:48:01;102599.13;;;-0.34;100.00
62948;BME280;51940;52.126;-0.994;2023-01-25T03:50:26;102594.83;;;-0.35;100.00
62948;BME280;51940;52.126;-0.994;2023-01-25T03:52:51;102602.02;;;-0.35;100.00
62948;BME280;51940;52.126;-0.994;2023-01-25T03:55:23;102599.17;;;-0.35;100.00
62948;BME280;51940;52.126;-0.994;2023-01-25T03:57:48;102595.27;;;-0.36;100.00
62948;BME280;51940;52.126;-0.994;2023-01-25T04:00:14;102595.97;;;-0.36;100.00
62948;BME280;51940;52.126;-0.994;2023-01-25T04:02:40;102597.73;;;-0.36;100.00
62948;BME280;51940;52.126;-0.994;2023-01-25T04:05:06;102598.08;;;-0.36;100.00
62948;BME280;51940;52.126;-0.994;2023-01-25T04:07:31;102600.95;;;-0.35;100.00
62948;BME280;51940;52.126;-0.994;2023-01-25T04:09:58;102596.75;;;-0.35;100.00
62948;BME280;51940;52.126;-0.994;2023-01-25T04:12:23;102593.80;;;-0.35;100.00
62948;BME280;51940;52.126;-0.994;2023-01-25T04:14:49;102587.11;;;-0.35;100.00
62948;BME280;51940;52.126;-0.994;2023-01-25T04:17:14;102585.00;;;-0.35;100.00
62948;BME280;51940;52.126;-0.994;2023-01-25T04:19:40;102588.38;;;-0.34;100.00
62948;BME280;51940;52.126;-0.994;2023-01-25T04:22:05;102586.78;;;-0.35;100.00
62948;BME280;51940;52.126;-0.994;2023-01-25T04:24:31;102593.61;;;-0.35;100.00
62948;BME280;51940;52.126;-0.994;2023-01-25T04:26:56;102593.50;;;-0.34;100.00
62948;BME280;51940;52.126;-0.994;2023-01-25T04:29:21;102589.50;;;-0.34;100.00
62948;BME280;51940;52.126;-0.994;2023-01-25T04:31:47;102586.55;;;-0.33;100.00
62948;BME280;51940;52.126;-0.994;2023-01-25T04:34:12;102587.79;;;-0.32;100.00
62948;BME280;51940;52.126;-0.994;2023-01-25T04:36:37;102584.82;;;-0.32;100.00
62948;BME280;51940;52.126;-0.994;2023-01-25T04:39:03;102582.41;;;-0.32;100.00
62948;BME280;51940;52.126;-0.994;2023-01-25T04:41:28;102582.27;;;-0.31;100.00
62948;BME280;51940;52.126;-0.994;2023-01-25T04:43:54;102580.15;;;-0.31;100.00
62948;BME280;51940;52.126;-0.994;2023-01-25T04:46:20;102576.47;;;-0.31;100.00
62948;BME280;51940;52.126;-0.994;2023-01-25T04:48:45;102577.38;;;-0.31;100.00
62948;BME280;51940;52.126;-0.994;2023-01-25T04:51:11;102574.96;;;-0.30;100.00
62948;BME280;51940;52.126;-0.994;2023-01-25T04:53:37;102570.07;;;-0.29;100.00
62948;BME280;51940;52.126;-0.994;2023-01-25T04:56:03;102567.27;;;-0.29;100.00
62948;BME280;51940;52.126;-0.994;2023-01-25T04:58:28;102563.31;;;-0.28;100.00
62948;BME280;51940;52.126;-0.994;2023-01-25T05:00:59;102564.41;;;-0.27;100.00
62948;BME280;51940;52.126;-0.994;2023-01-25T05:03:25;102564.27;;;-0.26;100.00
62948;BME280;51940;52.126;-0.994;2023-01-25T05:05:50;102563.48;;;-0.25;100.00
62948;BME280;51940;52.126;-0.994;2023-01-25T05:08:16;102559.27;;;-0.25;100.00
62948;BME280;51940;52.126;-0.994;2023-01-25T05:10:41;102553.70;;;-0.24;100.00
62948;BME280;51940;52.126;-0.994;2023-01-25T05:13:07;102553.92;;;-0.23;100.00
62948;BME280;51940;52.126;-0.994;2023-01-25T05:15:32;102554.63;;;-0.23;100.00
62948;BME280;51940;52.126;-0.994;2023-01-25T05:17:57;102551.49;;;-0.23;100.00
62948;BME280;51940;52.126;-0.994;2023-01-25T05:20:23;102549.25;;;-0.22;100.00
62948;BME280;51940;52.126;-0.994;2023-01-25T05:22:48;102545.24;;;-0.22;100.00
62948;BME280;51940;52.126;-0.994;2023-01-25T05:25:13;102544.05;;;-0.21;100.00
62948;BME280;51940;52.126;-0.994;2023-01-25T05:27:58;102541.80;;;-0.20;100.00
62948;BME280;51940;52.126;-0.994;2023-01-25T05:30:23;102544.11;;;-0.20;100.00
62948;BME280;51940;52.126;-0.994;2023-01-25T05:32:49;102535.86;;;-0.20;100.00
62948;BME280;51940;52.126;-0.994;2023-01-25T05:35:14;102534.45;;;-0.20;100.00
62948;BME280;51940;52.126;-0.994;2023-01-25T05:37:40;102528.85;;;-0.20;100.00
62948;BME280;51940;52.126;-0.994;2023-01-25T05:40:06;102524.11;;;-0.20;100.00
62948;BME280;51940;52.126;-0.994;2023-01-25T05:42:32;102524.64;;;-0.20;100.00
62948;BME280;51940;52.126;-0.994;2023-01-25T05:44:57;102524.64;;;-0.20;100.00
62948;BME280;51940;52.126;-0.994;2023-01-25T05:47:24;102524.96;;;-0.20;100.00
62948;BME280;51940;52.126;-0.994;2023-01-25T05:49:49;102526.55;;;-0.20;100.00
62948;BME280;51940;52.126;-0.994;2023-01-25T05:52:15;102523.17;;;-0.21;100.00
62948;BME280;51940;52.126;-0.994;2023-01-25T05:54:41;102518.75;;;-0.22;100.00
62948;BME280;51940;52.126;-0.994;2023-01-25T05:57:06;102513.46;;;-0.22;100.00
62948;BME280;51940;52.126;-0.994;2023-01-25T05:59:31;102507.10;;;-0.23;100.00
62948;BME280;51940;52.126;-0.994;2023-01-25T06:01:57;102503.36;;;-0.25;100.00
62948;BME280;51940;52.126;-0.994;2023-01-25T06:04:22;102499.67;;;-0.25;100.00
62948;BME280;51940;52.126;-0.994;2023-01-25T06:06:48;102498.21;;;-0.26;100.00
62948;BME280;51940;52.126;-0.994;2023-01-25T06:09:13;102496.91;;;-0.26;100.00
62948;BME280;51940;52.126;-0.994;2023-01-25T06:11:39;102499.35;;;-0.27;100.00
62948;BME280;51940;52.126;-0.994;2023-01-25T06:14:07;102502.11;;;-0.28;100.00
62948;BME280;51940;52.126;-0.994;2023-01-25T06:16:32;102504.35;;;-0.29;100.00
62948;BME280;51940;52.126;-0.994;2023-01-25T06:18:57;102499.77;;;-0.29;100.00
62948;BME280;51940;52.126;-0.994;2023-01-25T06:21:23;102499.91;;;-0.30;100.00
62948;BME280;51940;52.126;-0.994;2023-01-25T06:23:48;102497.95;;;-0.31;100.00
62948;BME280;51940;52.126;-0.994;2023-01-25T06:26:14;102499.19;;;-0.31;100.00
62948;BME280;51940;52.126;-0.994;2023-01-25T06:28:40;102494.07;;;-0.31;100.00
62948;BME280;51940;52.126;-0.994;2023-01-25T06:31:16;102496.02;;;-0.31;100.00
62948;BME280;51940;52.126;-0.994;2023-01-25T06:33:44;102493.91;;;-0.31;100.00
62948;BME280;51940;52.126;-0.994;2023-01-25T06:36:14;102495.83;;;-0.31;100.00
62948;BME280;51940;52.126;-0.994;2023-01-25T06:38:40;102496.01;;;-0.31;100.00
62948;BME280;51940;52.126;-0.994;2023-01-25T06:41:08;102495.66;;;-0.31;100.00
62948;BME280;51940;52.126;-0.994;2023-01-25T06:43:34;102496.34;;;-0.31;100.00
62948;BME280;51940;52.126;-0.994;2023-01-25T06:46:01;102491.64;;;-0.31;100.00
62948;BME280;51940;52.126;-0.994;2023-01-25T06:48:30;102491.48;;;-0.31;100.00
62948;BME280;51940;52.126;-0.994;2023-01-25T06:51:01;102488.52;;;-0.30;100.00
62948;BME280;51940;52.126;-0.994;2023-01-25T06:53:32;102487.75;;;-0.31;100.00
62948;BME280;51940;52.126;-0.994;2023-01-25T06:56:08;102479.80;;;-0.32;100.00
62948;BME280;51940;52.126;-0.994;2023-01-25T06:58:35;102474.38;;;-0.32;100.00
62948;BME280;51940;52.126;-0.994;2023-01-25T07:01:05;102478.05;;;-0.32;100.00
62948;BME280;51940;52.126;-0.994;2023-01-25T07:03:32;102473.13;;;-0.32;100.00
62948;BME280;51940;52.126;-0.994;2023-01-25T07:06:03;102472.42;;;-0.33;100.00
62948;BME280;51940;52.126;-0.994;2023-01-25T07:08:29;102466.64;;;-0.33;100.00
62948;BME280;51940;52.126;-0.994;2023-01-25T07:10:57;102465.89;;;-0.33;100.00
62948;BME280;51940;52.126;-0.994;2023-01-25T07:13:25;102465.99;;;-0.35;100.00
62948;BME280;51940;52.126;-0.994;2023-01-25T07:15:55;102469.13;;;-0.35;100.00
62948;BME280;51940;52.126;-0.994;2023-01-25T07:18:21;102470.50;;;-0.35;100.00
62948;BME280;51940;52.126;-0.994;2023-01-25T07:20:46;102475.89;;;-0.36;100.00
62948;BME280;51940;52.126;-0.994;2023-01-25T07:23:12;102474.96;;;-0.37;100.00
62948;BME280;51940;52.126;-0.994;2023-01-25T07:25:43;102475.14;;;-0.37;100.00
62948;BME280;51940;52.126;-0.994;2023-01-25T07:28:09;102471.91;;;-0.39;100.00
62948;BME280;51940;52.126;-0.994;2023-01-25T07:30:34;102470.98;;;-0.40;100.00
62948;BME280;51940;52.126;-0.994;2023-01-25T07:32:59;102465.36;;;-0.40;100.00
62948;BME280;51940;52.126;-0.994;2023-01-25T07:35:25;102462.86;;;-0.41;100.00
62948;BME280;51940;52.126;-0.994;2023-01-25T07:37:50;102462.33;;;-0.41;100.00
62948;BME280;51940;52.126;-0.994;2023-01-25T07:40:15;102462.41;;;-0.42;100.00
62948;BME280;51940;52.126;-0.994;2023-01-25T07:42:41;102452.45;;;-0.42;100.00
62948;BME280;51940;52.126;-0.994;2023-01-25T07:45:07;102453.04;;;-0.44;100.00
62948;BME280;51940;52.126;-0.994;2023-01-25T07:47:33;102453.33;;;-0.45;100.00
62948;BME280;51940;52.126;-0.994;2023-01-25T07:49:58;102453.30;;;-0.46;100.00
62948;BME280;51940;52.126;-0.994;2023-01-25T07:52:23;102448.05;;;-0.45;100.00
62948;BME280;51940;52.126;-0.994;2023-01-25T07:54:49;102449.78;;;-0.46;100.00
62948;BME280;51940;52.126;-0.994;2023-01-25T07:57:14;102447.09;;;-0.47;100.00
62948;BME280;51940;52.126;-0.994;2023-01-25T07:59:40;102447.22;;;-0.48;100.00
62948;BME280;51940;52.126;-0.994;2023-01-25T08:02:08;102438.48;;;-0.48;100.00
62948;BME280;51940;52.126;-0.994;2023-01-25T08:04:34;102438.16;;;-0.47;100.00
62948;BME280;51940;52.126;-0.994;2023-01-25T08:06:59;102436.28;;;-0.46;100.00
62948;BME280;51940;52.126;-0.994;2023-01-25T08:09:25;102434.73;;;-0.46;100.00
62948;BME280;51940;52.126;-0.994;2023-01-25T08:11:50;102433.52;;;-0.45;100.00
62948;BME280;51940;52.126;-0.994;2023-01-25T08:14:17;102439.12;;;-0.45;100.00
62948;BME280;51940;52.126;-0.994;2023-01-25T08:16:43;102433.04;;;-0.44;100.00
62948;BME280;51940;52.126;-0.994;2023-01-25T08:19:09;102431.02;;;-0.43;100.00
62948;BME280;51940;52.126;-0.994;2023-01-25T08:21:36;102430.75;;;-0.41;100.00
62948;BME280;51940;52.126;-0.994;2023-01-25T08:24:04;102432.90;;;-0.40;100.00
62948;BME280;51940;52.126;-0.994;2023-01-25T08:26:31;102429.31;;;-0.39;100.00
62948;BME280;51940;52.126;-0.994;2023-01-25T08:28:57;102423.40;;;-0.38;100.00
62948;BME280;51940;52.126;-0.994;2023-01-25T08:31:25;102422.23;;;-0.37;100.00
62948;BME280;51940;52.126;-0.994;2023-01-25T08:33:53;102412.16;;;-0.35;100.00
62948;BME280;51940;52.126;-0.994;2023-01-25T08:36:20;102404.87;;;-0.34;100.00
62948;BME280;51940;52.126;-0.994;2023-01-25T08:38:46;102399.36;;;-0.32;100.00
62948;BME280;51940;52.126;-0.994;2023-01-25T08:41:17;102393.64;;;-0.31;100.00
62948;BME280;51940;52.126;-0.994;2023-01-25T08:43:44;102392.70;;;-0.28;100.00
62948;BME280;51940;52.126;-0.994;2023-01-25T08:46:11;102388.80;;;-0.26;100.00
62948;BME280;51940;52.126;-0.994;2023-01-25T08:48:37;102384.73;;;-0.23;100.00
62948;BME280;51940;52.126;-0.994;2023-01-25T08:51:03;102386.89;;;-0.21;100.00
62948;BME280;51940;52.126;-0.994;2023-01-25T08:53:30;102385.77;;;-0.19;100.00
62948;BME280;51940;52.126;-0.994;2023-01-25T08:56:07;102377.52;;;-0.17;100.00
62948;BME280;51940;52.126;-0.994;2023-01-25T08:58:33;102372.89;;;-0.15;100.00
62948;BME280;51940;52.126;-0.994;2023-01-25T09:01:05;102364.39;;;-0.13;100.00
62948;BME280;51940;52.126;-0.994;2023-01-25T09:03:34;102361.00;;;-0.10;100.00
62948;BME280;51940;52.126;-0.994;2023-01-25T09:06:00;102357.79;;;-0.08;100.00
62948;BME280;51940;52.126;-0.994;2023-01-25T09:08:26;102354.44;;;-0.05;100.00
62948;BME280;51940;52.126;-0.994;2023-01-25T09:10:51;102352.63;;;-0.03;100.00
62948;BME280;51940;52.126;-0.994;2023-01-25T09:13:17;102352.10;;;0.01;100.00
62948;BME280;51940;52.126;-0.994;2023-01-25T09:15:42;102351.36;;;0.04;100.00
62948;BME280;51940;52.126;-0.994;2023-01-25T09:18:08;102360.40;;;0.06;100.00
62948;BME280;51940;52.126;-0.994;2023-01-25T09:20:37;102357.67;;;0.07;100.00
62948;BME280;51940;52.126;-0.994;2023-01-25T09:23:02;102354.56;;;0.08;100.00
62948;BME280;51940;52.126;-0.994;2023-01-25T09:25:27;102352.58;;;0.10;100.00
62948;BME280;51940;52.126;-0.994;2023-01-25T09:27:53;102349.23;;;0.14;100.00
62948;BME280;51940;52.126;-0.994;2023-01-25T09:30:18;102337.30;;;0.17;100.00
62948;BME280;51940;52.126;-0.994;2023-01-25T09:32:44;102328.52;;;0.21;100.00
62948;BME280;51940;52.126;-0.994;2023-01-25T09:35:09;102326.95;;;0.25;100.00
62948;BME280;51940;52.126;-0.994;2023-01-25T09:37:35;102322.92;;;0.28;100.00
62948;BME280;51940;52.126;-0.994;2023-01-25T09:40:00;102316.73;;;0.31;100.00
62948;BME280;51940;52.126;-0.994;2023-01-25T09:42:50;102315.83;;;0.34;100.00
62948;BME280;51940;52.126;-0.994;2023-01-25T09:45:37;102310.73;;;0.37;100.00
62948;BME280;51940;52.126;-0.994;2023-01-25T09:48:20;102311.60;;;0.41;100.00
62948;BME280;51940;52.126;-0.994;2023-01-25T09:53:31;102290.48;;;0.47;100.00
62948;BME280;51940;52.126;-0.994;2023-01-25T09:56:02;102285.02;;;0.50;100.00
62948;BME280;51940;52.126;-0.994;2023-01-25T09:58:32;102276.25;;;0.54;100.00
62948;BME280;51940;52.126;-0.994;2023-01-25T10:06:39;102258.63;;;0.68;100.00
62948;BME280;51940;52.126;-0.994;2023-01-25T10:09:19;102259.36;;;0.72;100.00
62948;BME280;51940;52.126;-0.994;2023-01-25T10:11:46;102262.30;;;0.75;100.00
62948;BME280;51940;52.126;-0.994;2023-01-25T10:14:14;102265.64;;;0.79;100.00
62948;BME280;51940;52.126;-0.994;2023-01-25T10:22:00;102258.64;;;0.92;100.00
62948;BME280;51940;52.126;-0.994;2023-01-25T10:29:41;102247.64;;;1.04;100.00
62948;BME280;51940;52.126;-0.994;2023-01-25T10:32:39;102237.83;;;1.09;100.00
62948;BME280;51940;52.126;-0.994;2023-01-25T10:35:15;102227.36;;;1.15;100.00
62948;BME280;51940;52.126;-0.994;2023-01-25T10:37:41;102214.63;;;1.22;100.00
62948;BME280;51940;52.126;-0.994;2023-01-25T10:40:23;102207.13;;;1.27;100.00
62948;BME280;51940;52.126;-0.994;2023-01-25T10:42:54;102196.98;;;1.32;100.00
62948;BME280;51940;52.126;-0.994;2023-01-25T10:45:22;102188.81;;;1.38;100.00
62948;BME280;51940;52.126;-0.994;2023-01-25T10:47:54;102180.78;;;1.44;100.00
62948;BME280;51940;52.126;-0.994;2023-01-25T10:53:02;102185.23;;;1.57;100.00
62948;BME280;51940;52.126;-0.994;2023-01-25T10:55:28;102187.41;;;1.63;100.00
62948;BME280;51940;52.126;-0.994;2023-01-25T10:57:55;102180.21;;;1.68;100.00
62948;BME280;51940;52.126;-0.994;2023-01-25T11:00:25;102173.66;;;1.71;100.00
62948;BME280;51940;52.126;-0.994;2023-01-25T11:02:53;102165.16;;;1.75;100.00
62948;BME280;51940;52.126;-0.994;2023-01-25T11:05:34;102167.39;;;1.78;100.00
62948;BME280;51940;52.126;-0.994;2023-01-25T11:10:54;102177.63;;;1.83;100.00
62948;BME280;51940;52.126;-0.994;2023-01-25T11:13:26;102172.20;;;1.83;100.00
62948;BME280;51940;52.126;-0.994;2023-01-25T11:16:08;102163.98;;;1.85;100.00
62948;BME280;51940;52.126;-0.994;2023-01-25T11:18:36;102157.41;;;1.88;100.00
62948;BME280;51940;52.126;-0.994;2023-01-25T11:21:16;102153.63;;;1.89;100.00
62948;BME280;51940;52.126;-0.994;2023-01-25T11:26:36;102145.85;;;1.97;100.00
62948;BME280;51940;52.126;-0.994;2023-01-25T11:29:14;102149.71;;;2.02;100.00
62948;BME280;51940;52.126;-0.994;2023-01-25T11:31:41;102137.98;;;2.08;100.00
62948;BME280;51940;52.126;-0.994;2023-01-25T11:34:12;102141.92;;;2.14;100.00
62948;BME280;51940;52.126;-0.994;2023-01-25T11:42:32;102158.86;;;2.24;100.00
62948;BME280;51940;52.126;-0.994;2023-01-25T11:50:40;102156.69;;;2.37;100.00
62948;BME280;51940;52.126;-0.994;2023-01-25T11:58:31;102137.83;;;2.61;100.00
62948;BME280;51940;52.126;-0.994;2023-01-25T12:15:03;102164.52;;;2.87;100.00
62948;BME280;51940;52.126;-0.994;2023-01-25T12:23:14;102155.38;;;2.78;100.00
62948;BME280;51940;52.126;-0.994;2023-01-25T12:26:18;102148.75;;;2.74;100.00
62948;BME280;51940;52.126;-0.994;2023-01-25T12:28:52;102141.63;;;2.77;100.00
62948;BME280;51940;52.126;-0.994;2023-01-25T12:34:18;102128.86;;;2.85;100.00
62948;BME280;51940;52.126;-0.994;2023-01-25T12:36:48;102127.14;;;2.87;100.00
62948;BME280;51940;52.126;-0.994;2023-01-25T12:39:30;102119.73;;;2.86;100.00
62948;BME280;51940;52.126;-0.994;2023-01-25T12:42:14;102104.55;;;2.86;100.00
62948;BME280;51940;52.126;-0.994;2023-01-25T12:44:45;102096.31;;;2.87;100.00
62948;BME280;51940;52.126;-0.994;2023-01-25T12:47:32;102087.21;;;2.89;100.00
62948;BME280;51940;52.126;-0.994;2023-01-25T12:52:53;102101.83;;;2.89;100.00
62948;BME280;51940;52.126;-0.994;2023-01-25T12:55:20;102105.27;;;2.86;100.00
62948;BME280;51940;52.126;-0.994;2023-01-25T12:57:59;102099.34;;;2.82;100.00
62948;BME280;51940;52.126;-0.994;2023-01-25T13:00:34;102087.58;;;2.79;100.00
62948;BME280;51940;52.126;-0.994;2023-01-25T13:09:14;102066.96;;;2.73;100.00
62948;BME280;51940;52.126;-0.994;2023-01-25T13:11:42;102051.23;;;2.72;100.00
62948;BME280;51940;52.126;-0.994;2023-01-25T13:16:47;102060.23;;;2.72;100.00
62948;BME280;51940;52.126;-0.994;2023-01-25T13:21:56;102047.83;;;2.71;100.00
62948;BME280;51940;52.126;-0.994;2023-01-25T13:24:23;102040.78;;;2.71;100.00
62948;BME280;51940;52.126;-0.994;2023-01-25T13:32:00;102036.16;;;2.74;100.00
62948;BME280;51940;52.126;-0.994;2023-01-25T13:37:22;102010.27;;;2.75;100.00
62948;BME280;51940;52.126;-0.994;2023-01-25T13:44:48;101961.70;;;2.82;100.00
62948;BME280;51940;52.126;-0.994;2023-01-25T13:47:18;101955.20;;;2.88;100.00
62948;BME280;51940;52.126;-0.994;2023-01-25T13:49:56;101954.02;;;2.95;100.00
62948;BME280;51940;52.126;-0.994;2023-01-25T13:52:25;101957.98;;;3.03;100.00
62948;BME280;51940;52.126;-0.994;2023-01-25T13:54:54;101951.89;;;3.11;100.00
62948;BME280;51940;52.126;-0.994;2023-01-25T13:57:24;101953.70;;;3.19;100.00
62948;BME280;51940;52.126;-0.994;2023-01-25T14:00:35;101946.38;;;3.26;100.00
62948;BME280;51940;52.126;-0.994;2023-01-25T14:02:54;101947.14;;;3.40;100.00
62948;BME280;51940;52.126;-0.994;2023-01-25T14:05:24;101946.23;;;3.51;100.00
62948;BME280;51940;52.126;-0.994;2023-01-25T14:07:55;101944.85;;;3.58;100.00
62948;BME280;51940;52.126;-0.994;2023-01-25T14:10:23;101931.30;;;3.65;100.00
62948;BME280;51940;52.126;-0.994;2023-01-25T14:12:52;101929.39;;;3.73;100.00
62948;BME280;51940;52.126;-0.994;2023-01-25T14:15:24;101927.61;;;3.78;100.00
62948;BME280;51940;52.126;-0.994;2023-01-25T14:18:16;101924.89;;;3.82;100.00
62948;BME280;51940;52.126;-0.994;2023-01-25T14:20:48;101920.76;;;3.85;100.00